Airfield :
LOGIN :

Register | Disclaimer

   EN    FR    IT 

 










Legend :    VFR   Marginal VFR   IFR   Intensive IFR   Very Intensive IFR
Visi :
Ceiling :
>= 8 km
>= 3000ft
5 to 8 km
1000 to 3000 ft
1500m to 5 km
500 to 1000 ft
800 to 1500m
200 to 500 ft
< 800m
< 200 ft
Symbols :   Thunderstorms  Fog  Heavy snow  Heavy precipitations  Wind > 20 kt
SIGMETs :     Misc.  Thunderstorms  Icing  Turbulence  Mountain Waves  Volcanic Ashes






- Airport Elevation : 65 ft
- IATA code : PIK


EGPK - Glasgow Prestwick

CURRENT METAR :
  • 312120Z 23014KT 9999 FEW020 BKN030 10/04 Q0999

EXPIRED METARs :
  • 312050Z 23018G30KT 9999 FEW026 SCT035 10/04 Q0999
  • 312020Z 24020G31KT 9999 FEW026 SCT035 10/05 Q0999
  • 311950Z 23023G33KT 9999 BKN025 10/05 Q0998
  • 311920Z 24021G31KT 9999 BKN025 11/06 Q0998
  • 311850Z 23022G34KT 9999 BKN025 11/06 Q0997

TAF TAF EGPK
Valid from the 31 at 18:00 until the 01 at 18:00 UTC


311704Z 3118/0118 22020G35KT 9999 FEW020
PROB30
TEMPO 3118/3121 6000 RA BKN014
BECMG 3121/3124 19012KT
PROB30
TEMPO 0100/0103 19015G25KT
TEMPO 0101/0107 4000 RA BKN012
BECMG 0103/0106 17020G35KT
BECMG 0106/0109 22020G34KT



MET'MAP, your aeronautical weather chart ! - Copyright ORBIFLY December 2007 - Disclaimer

ORBIFLY MET'MAP TEAM :

Programming & Development : Alexandra Zaïnal
Concept & original design : Baudouin d'Aumeries
Assistance for programming : Marc-Olivier Méhu
Technical & hardware support : Manuel Goepfert

Contact : metmap@orbifly.com




SOURCES & CREDITS :

   NOAA